This is the latest recevied weather packets stored in our database for station/object YO9FTR-10. If no packets are shown the sender has not sent any weather packets the latest 10 day(s).
| Time | Temp. | Humidity | Pressure | Rain* | Wind** | Luminosity | Snow |
|---|---|---|---|---|---|---|---|
| 1777758104 | 1.11° C | 92% | 1026.9 hPa | - | - | - | - |
| 1777757201 | 1.11° C | 92% | 1026.8 hPa | - | - | - | - |
| 1777756298 | 1.11° C | 93% | 1026.8 hPa | - | - | - | - |
| 1777755395 | 1.11° C | 91% | 1026.8 hPa | - | - | - | - |
| 1777754491 | 1.67° C | 87% | 1026.7 hPa | - | - | - | - |
| 1777753589 | 1.11° C | 91% | 1026.8 hPa | - | - | - | - |
| 1777752686 | 1.67° C | 88% | 1026.7 hPa | - | - | - | - |
| 1777751783 | 1.67° C | 91% | 1026.7 hPa | - | - | - | - |
| 1777750880 | 1.67° C | 90% | 1026.7 hPa | - | - | - | - |
| 1777749977 | 1.67° C | 91% | 1026.6 hPa | - | - | - | - |
| 1777749074 | 2.22° C | 87% | 1026.8 hPa | - | - | - | - |
| 1777748171 | 1.67° C | 92% | 1026.6 hPa | - | - | - | - |
| 1777747268 | 2.22° C | 91% | 1026.5 hPa | - | - | - | - |
| 1777746366 | 2.78° C | 83% | 1026.4 hPa | - | - | - | - |
| 1777745463 | 3.33° C | 86% | 1026.3 hPa | - | - | - | - |
| 1777744560 | 4.44° C | 74% | 1026.2 hPa | - | - | - | - |
| 1777743657 | 5.56° C | 64% | 1026.1 hPa | - | - | - | - |
| 1777742754 | 5.56° C | 68% | 1026.2 hPa | - | - | - | - |
| 1777741851 | 6.11° C | 69% | 1025.9 hPa | - | - | - | - |
| 1777740948 | 6.11° C | 72% | 1025.7 hPa | - | - | - | - |
| 1777740045 | 7.22° C | 67% | 1025.6 hPa | - | - | - | - |
| 1777739143 | 9.44° C | 58% | 1025.5 hPa | - | - | - | - |
| 1777738240 | 8.89° C | 60% | 1025.5 hPa | - | - | - | - |
| 1777737337 | 7.78° C | 68% | 1025.6 hPa | - | - | - | - |
| 1777736433 | 7.22° C | 76% | 1025.7 hPa | - | - | - | - |
* Rain since midnight (hover to see other rain measurements)
** Current wind speed in m/s (hover to see current wind gust speed)